sensor_id;sensor_type;location;lat;lon;timestamp;P1;durP1;ratioP1;P2;durP2;ratioP2
69170;SDS011;56279;47.902;12.308;2023-11-22T00:00:07;14.90;;;7.13;;
69170;SDS011;56279;47.902;12.308;2023-11-22T00:02:10;12.38;;;6.35;;
69170;SDS011;56279;47.902;12.308;2023-11-22T00:04:11;14.35;;;7.43;;
69170;SDS011;56279;47.902;12.308;2023-11-22T00:06:13;13.52;;;6.53;;
69170;SDS011;56279;47.902;12.308;2023-11-22T00:08:14;12.35;;;6.47;;
69170;SDS011;56279;47.902;12.308;2023-11-22T00:10:15;12.30;;;6.40;;
69170;SDS011;56279;47.902;12.308;2023-11-22T00:12:17;12.43;;;6.93;;
69170;SDS011;56279;47.902;12.308;2023-11-22T00:14:18;13.02;;;7.13;;
69170;SDS011;56279;47.902;12.308;2023-11-22T00:16:19;13.30;;;7.57;;
69170;SDS011;56279;47.902;12.308;2023-11-22T00:18:21;12.50;;;6.97;;
69170;SDS011;56279;47.902;12.308;2023-11-22T00:20:23;13.80;;;7.50;;
69170;SDS011;56279;47.902;12.308;2023-11-22T00:22:24;13.48;;;6.93;;
69170;SDS011;56279;47.902;12.308;2023-11-22T00:24:28;11.30;;;5.95;;
69170;SDS011;56279;47.902;12.308;2023-11-22T00:26:29;13.10;;;6.63;;
69170;SDS011;56279;47.902;12.308;2023-11-22T00:28:34;13.32;;;7.28;;
69170;SDS011;56279;47.902;12.308;2023-11-22T00:30:36;13.23;;;7.43;;
69170;SDS011;56279;47.902;12.308;2023-11-22T00:32:37;11.43;;;6.53;;
69170;SDS011;56279;47.902;12.308;2023-11-22T00:34:38;11.70;;;6.95;;
69170;SDS011;56279;47.902;12.308;2023-11-22T00:36:40;12.35;;;6.88;;
69170;SDS011;56279;47.902;12.308;2023-11-22T00:38:41;12.45;;;6.82;;
69170;SDS011;56279;47.902;12.308;2023-11-22T00:40:43;13.67;;;6.83;;
69170;SDS011;56279;47.902;12.308;2023-11-22T00:42:45;11.88;;;6.85;;
69170;SDS011;56279;47.902;12.308;2023-11-22T00:44:46;12.90;;;7.07;;
69170;SDS011;56279;47.902;12.308;2023-11-22T00:46:48;12.43;;;6.90;;
69170;SDS011;56279;47.902;12.308;2023-11-22T00:48:50;13.75;;;6.78;;
69170;SDS011;56279;47.902;12.308;2023-11-22T00:50:51;12.63;;;6.97;;
69170;SDS011;56279;47.902;12.308;2023-11-22T00:52:53;10.52;;;5.78;;
69170;SDS011;56279;47.902;12.308;2023-11-22T00:54:55;12.23;;;6.47;;
69170;SDS011;56279;47.902;12.308;2023-11-22T00:56:56;13.32;;;6.85;;
69170;SDS011;56279;47.902;12.308;2023-11-22T00:58:57;15.07;;;6.95;;
69170;SDS011;56279;47.902;12.308;2023-11-22T01:01:00;10.70;;;5.63;;
69170;SDS011;56279;47.902;12.308;2023-11-22T01:03:02;12.00;;;6.38;;
69170;SDS011;56279;47.902;12.308;2023-11-22T01:05:06;11.40;;;6.45;;
69170;SDS011;56279;47.902;12.308;2023-11-22T01:07:18;11.55;;;7.15;;
69170;SDS011;56279;47.902;12.308;2023-11-22T01:09:19;11.60;;;5.80;;
69170;SDS011;56279;47.902;12.308;2023-11-22T01:11:20;11.27;;;5.90;;
69170;SDS011;56279;47.902;12.308;2023-11-22T01:13:22;11.93;;;6.68;;
69170;SDS011;56279;47.902;12.308;2023-11-22T01:15:23;11.85;;;6.63;;
69170;SDS011;56279;47.902;12.308;2023-11-22T01:17:25;10.88;;;6.00;;
69170;SDS011;56279;47.902;12.308;2023-11-22T01:19:26;11.68;;;6.57;;
69170;SDS011;56279;47.902;12.308;2023-11-22T01:21:28;10.93;;;6.40;;
69170;SDS011;56279;47.902;12.308;2023-11-22T01:23:29;13.52;;;6.32;;
69170;SDS011;56279;47.902;12.308;2023-11-22T01:25:32;11.32;;;5.70;;
69170;SDS011;56279;47.902;12.308;2023-11-22T01:27:33;12.18;;;6.75;;
69170;SDS011;56279;47.902;12.308;2023-11-22T01:29:36;11.07;;;5.88;;
69170;SDS011;56279;47.902;12.308;2023-11-22T01:31:37;11.13;;;6.30;;
69170;SDS011;56279;47.902;12.308;2023-11-22T01:33:39;11.13;;;6.00;;
69170;SDS011;56279;47.902;12.308;2023-11-22T01:35:40;11.27;;;5.90;;
69170;SDS011;56279;47.902;12.308;2023-11-22T01:37:42;12.25;;;6.35;;
69170;SDS011;56279;47.902;12.308;2023-11-22T01:39:43;10.25;;;5.97;;
69170;SDS011;56279;47.902;12.308;2023-11-22T01:41:44;9.37;;;5.70;;
69170;SDS011;56279;47.902;12.308;2023-11-22T01:43:45;9.80;;;5.32;;
69170;SDS011;56279;47.902;12.308;2023-11-22T01:45:47;9.75;;;5.45;;
69170;SDS011;56279;47.902;12.308;2023-11-22T01:47:48;12.60;;;5.90;;
69170;SDS011;56279;47.902;12.308;2023-11-22T01:49:49;10.82;;;6.03;;
69170;SDS011;56279;47.902;12.308;2023-11-22T01:51:51;11.73;;;5.60;;
69170;SDS011;56279;47.902;12.308;2023-11-22T01:53:53;10.45;;;6.10;;
69170;SDS011;56279;47.902;12.308;2023-11-22T01:55:56;12.48;;;6.05;;
69170;SDS011;56279;47.902;12.308;2023-11-22T01:57:58;11.07;;;5.85;;
69170;SDS011;56279;47.902;12.308;2023-11-22T02:00:03;10.80;;;6.25;;
69170;SDS011;56279;47.902;12.308;2023-11-22T02:02:14;10.87;;;5.30;;
69170;SDS011;56279;47.902;12.308;2023-11-22T02:04:15;11.60;;;6.28;;
69170;SDS011;56279;47.902;12.308;2023-11-22T02:06:16;9.68;;;5.85;;
69170;SDS011;56279;47.902;12.308;2023-11-22T02:08:17;11.30;;;5.68;;
69170;SDS011;56279;47.902;12.308;2023-11-22T02:10:19;10.70;;;5.97;;
69170;SDS011;56279;47.902;12.308;2023-11-22T02:12:22;10.20;;;5.63;;
69170;SDS011;56279;47.902;12.308;2023-11-22T02:14:23;12.50;;;5.28;;
69170;SDS011;56279;47.902;12.308;2023-11-22T02:16:25;10.15;;;5.50;;
69170;SDS011;56279;47.902;12.308;2023-11-22T02:18:26;12.73;;;5.82;;
69170;SDS011;56279;47.902;12.308;2023-11-22T02:20:28;10.85;;;5.85;;
69170;SDS011;56279;47.902;12.308;2023-11-22T02:22:29;11.30;;;5.83;;
69170;SDS011;56279;47.902;12.308;2023-11-22T02:24:30;12.32;;;5.97;;
69170;SDS011;56279;47.902;12.308;2023-11-22T02:26:33;9.52;;;5.60;;
69170;SDS011;56279;47.902;12.308;2023-11-22T02:28:36;12.80;;;5.68;;
69170;SDS011;56279;47.902;12.308;2023-11-22T02:30:38;10.60;;;5.57;;
69170;SDS011;56279;47.902;12.308;2023-11-22T02:32:40;11.47;;;5.80;;
69170;SDS011;56279;47.902;12.308;2023-11-22T02:34:41;10.48;;;5.82;;
69170;SDS011;56279;47.902;12.308;2023-11-22T02:36:42;10.55;;;5.93;;
69170;SDS011;56279;47.902;12.308;2023-11-22T02:38:46;13.07;;;5.90;;
69170;SDS011;56279;47.902;12.308;2023-11-22T02:40:48;12.85;;;5.03;;
69170;SDS011;56279;47.902;12.308;2023-11-22T02:42:53;10.93;;;5.23;;
69170;SDS011;56279;47.902;12.308;2023-11-22T02:44:55;9.55;;;5.50;;
69170;SDS011;56279;47.902;12.308;2023-11-22T02:46:56;10.73;;;6.03;;
69170;SDS011;56279;47.902;12.308;2023-11-22T02:48:58;9.68;;;5.20;;
69170;SDS011;56279;47.902;12.308;2023-11-22T02:51:00;9.95;;;4.65;;
69170;SDS011;56279;47.902;12.308;2023-11-22T02:53:01;9.00;;;4.03;;
69170;SDS011;56279;47.902;12.308;2023-11-22T02:55:03;7.90;;;4.07;;
69170;SDS011;56279;47.902;12.308;2023-11-22T02:57:08;7.40;;;3.90;;
69170;SDS011;56279;47.902;12.308;2023-11-22T02:59:09;7.78;;;4.20;;
69170;SDS011;56279;47.902;12.308;2023-11-22T03:01:14;7.80;;;3.80;;
69170;SDS011;56279;47.902;12.308;2023-11-22T03:03:15;7.53;;;3.50;;
69170;SDS011;56279;47.902;12.308;2023-11-22T03:05:17;8.07;;;3.08;;
69170;SDS011;56279;47.902;12.308;2023-11-22T03:07:18;4.80;;;2.85;;
69170;SDS011;56279;47.902;12.308;2023-11-22T03:09:19;8.23;;;3.30;;
69170;SDS011;56279;47.902;12.308;2023-11-22T03:11:20;6.35;;;3.15;;
69170;SDS011;56279;47.902;12.308;2023-11-22T03:13:23;6.33;;;3.40;;
69170;SDS011;56279;47.902;12.308;2023-11-22T03:15:24;5.32;;;2.95;;
69170;SDS011;56279;47.902;12.308;2023-11-22T03:17:27;7.28;;;3.20;;
69170;SDS011;56279;47.902;12.308;2023-11-22T03:19:29;5.90;;;3.13;;
69170;SDS011;56279;47.902;12.308;2023-11-22T03:21:30;6.60;;;3.08;;
69170;SDS011;56279;47.902;12.308;2023-11-22T03:23:31;7.47;;;3.60;;
69170;SDS011;56279;47.902;12.308;2023-11-22T03:25:33;5.18;;;2.83;;
69170;SDS011;56279;47.902;12.308;2023-11-22T03:27:34;6.57;;;3.80;;
69170;SDS011;56279;47.902;12.308;2023-11-22T03:29:35;5.82;;;3.00;;
69170;SDS011;56279;47.902;12.308;2023-11-22T03:31:38;6.38;;;2.80;;
69170;SDS011;56279;47.902;12.308;2023-11-22T03:33:41;6.53;;;3.10;;
69170;SDS011;56279;47.902;12.308;2023-11-22T03:35:42;8.43;;;2.70;;
69170;SDS011;56279;47.902;12.308;2023-11-22T03:37:43;6.50;;;3.55;;
69170;SDS011;56279;47.902;12.308;2023-11-22T03:39:44;7.10;;;3.33;;
69170;SDS011;56279;47.902;12.308;2023-11-22T03:41:49;6.55;;;2.97;;
69170;SDS011;56279;47.902;12.308;2023-11-22T03:43:51;5.93;;;3.20;;
69170;SDS011;56279;47.902;12.308;2023-11-22T03:45:53;5.80;;;3.28;;
69170;SDS011;56279;47.902;12.308;2023-11-22T03:47:55;5.75;;;3.22;;
69170;SDS011;56279;47.902;12.308;2023-11-22T03:49:59;7.60;;;3.58;;
69170;SDS011;56279;47.902;12.308;2023-11-22T03:52:00;5.53;;;2.88;;
69170;SDS011;56279;47.902;12.308;2023-11-22T03:54:02;5.93;;;3.20;;
69170;SDS011;56279;47.902;12.308;2023-11-22T03:56:04;5.43;;;2.97;;
69170;SDS011;56279;47.902;12.308;2023-11-22T03:58:05;6.50;;;3.42;;
69170;SDS011;56279;47.902;12.308;2023-11-22T04:00:06;7.18;;;3.30;;
69170;SDS011;56279;47.902;12.308;2023-11-22T04:02:19;6.13;;;3.30;;
69170;SDS011;56279;47.902;12.308;2023-11-22T04:04:20;6.77;;;3.27;;
69170;SDS011;56279;47.902;12.308;2023-11-22T04:06:22;6.68;;;3.10;;
69170;SDS011;56279;47.902;12.308;2023-11-22T04:08:24;8.23;;;3.90;;
69170;SDS011;56279;47.902;12.308;2023-11-22T04:10:26;5.65;;;3.28;;
69170;SDS011;56279;47.902;12.308;2023-11-22T04:12:27;5.97;;;3.00;;
69170;SDS011;56279;47.902;12.308;2023-11-22T04:14:28;5.67;;;3.20;;
69170;SDS011;56279;47.902;12.308;2023-11-22T04:16:30;6.50;;;3.40;;
69170;SDS011;56279;47.902;12.308;2023-11-22T04:18:31;7.03;;;3.40;;
69170;SDS011;56279;47.902;12.308;2023-11-22T04:20:32;6.70;;;3.72;;
69170;SDS011;56279;47.902;12.308;2023-11-22T04:22:34;8.77;;;3.90;;
69170;SDS011;56279;47.902;12.308;2023-11-22T04:24:35;9.53;;;4.40;;
69170;SDS011;56279;47.902;12.308;2023-11-22T04:26:36;8.68;;;3.95;;
69170;SDS011;56279;47.902;12.308;2023-11-22T04:28:38;6.28;;;3.60;;
69170;SDS011;56279;47.902;12.308;2023-11-22T04:30:39;6.80;;;3.80;;
69170;SDS011;56279;47.902;12.308;2023-11-22T04:32:40;7.47;;;4.15;;
69170;SDS011;56279;47.902;12.308;2023-11-22T04:34:45;7.67;;;3.67;;
69170;SDS011;56279;47.902;12.308;2023-11-22T04:36:46;7.45;;;3.78;;
69170;SDS011;56279;47.902;12.308;2023-11-22T04:38:47;7.10;;;3.30;;
69170;SDS011;56279;47.902;12.308;2023-11-22T04:40:50;7.72;;;3.72;;
69170;SDS011;56279;47.902;12.308;2023-11-22T04:42:51;6.38;;;3.72;;
69170;SDS011;56279;47.902;12.308;2023-11-22T04:44:53;6.33;;;3.57;;
69170;SDS011;56279;47.902;12.308;2023-11-22T04:46:55;8.05;;;3.72;;
69170;SDS011;56279;47.902;12.308;2023-11-22T04:48:56;7.03;;;3.88;;
69170;SDS011;56279;47.902;12.308;2023-11-22T04:50:58;7.47;;;3.80;;
69170;SDS011;56279;47.902;12.308;2023-11-22T04:52:59;7.78;;;4.20;;
69170;SDS011;56279;47.902;12.308;2023-11-22T04:55:02;7.80;;;3.40;;
69170;SDS011;56279;47.902;12.308;2023-11-22T04:57:05;8.27;;;3.88;;
69170;SDS011;56279;47.902;12.308;2023-11-22T04:59:06;7.82;;;4.03;;
69170;SDS011;56279;47.902;12.308;2023-11-22T05:01:08;7.07;;;4.10;;
69170;SDS011;56279;47.902;12.308;2023-11-22T05:03:10;7.90;;;4.10;;
69170;SDS011;56279;47.902;12.308;2023-11-22T05:05:12;7.07;;;3.90;;
69170;SDS011;56279;47.902;12.308;2023-11-22T05:07:13;7.07;;;4.05;;
69170;SDS011;56279;47.902;12.308;2023-11-22T05:09:15;7.53;;;4.18;;
69170;SDS011;56279;47.902;12.308;2023-11-22T05:11:18;7.85;;;3.85;;
69170;SDS011;56279;47.902;12.308;2023-11-22T05:13:20;6.47;;;3.83;;
69170;SDS011;56279;47.902;12.308;2023-11-22T05:15:21;8.17;;;4.10;;
69170;SDS011;56279;47.902;12.308;2023-11-22T05:17:22;6.88;;;3.78;;
69170;SDS011;56279;47.902;12.308;2023-11-22T05:19:23;8.05;;;4.25;;
69170;SDS011;56279;47.902;12.308;2023-11-22T05:21:25;7.30;;;3.53;;
69170;SDS011;56279;47.902;12.308;2023-11-22T05:23:26;7.13;;;4.32;;
69170;SDS011;56279;47.902;12.308;2023-11-22T05:25:28;8.27;;;4.57;;
69170;SDS011;56279;47.902;12.308;2023-11-22T05:27:29;7.53;;;3.55;;
69170;SDS011;56279;47.902;12.308;2023-11-22T05:29:32;7.38;;;4.13;;
69170;SDS011;56279;47.902;12.308;2023-11-22T05:31:34;7.50;;;4.00;;
69170;SDS011;56279;47.902;12.308;2023-11-22T05:33:36;7.05;;;4.15;;
69170;SDS011;56279;47.902;12.308;2023-11-22T05:35:37;7.23;;;4.03;;
69170;SDS011;56279;47.902;12.308;2023-11-22T05:37:38;7.22;;;3.95;;
69170;SDS011;56279;47.902;12.308;2023-11-22T05:39:39;7.80;;;4.20;;
69170;SDS011;56279;47.902;12.308;2023-11-22T05:41:41;7.90;;;3.95;;
69170;SDS011;56279;47.902;12.308;2023-11-22T05:43:42;7.05;;;4.00;;
69170;SDS011;56279;47.902;12.308;2023-11-22T05:45:43;6.23;;;3.53;;
69170;SDS011;56279;47.902;12.308;2023-11-22T05:47:46;6.13;;;3.65;;
69170;SDS011;56279;47.902;12.308;2023-11-22T05:49:47;7.32;;;3.45;;
69170;SDS011;56279;47.902;12.308;2023-11-22T05:51:48;6.10;;;3.45;;
69170;SDS011;56279;47.902;12.308;2023-11-22T05:53:58;7.35;;;3.55;;
69170;SDS011;56279;47.902;12.308;2023-11-22T05:55:59;7.23;;;3.93;;
69170;SDS011;56279;47.902;12.308;2023-11-22T05:58:00;6.50;;;3.88;;
69170;SDS011;56279;47.902;12.308;2023-11-22T06:00:02;6.25;;;3.20;;
69170;SDS011;56279;47.902;12.308;2023-11-22T06:02:06;6.13;;;3.15;;
69170;SDS011;56279;47.902;12.308;2023-11-22T06:04:07;7.95;;;3.70;;
69170;SDS011;56279;47.902;12.308;2023-11-22T06:06:10;6.63;;;3.33;;
69170;SDS011;56279;47.902;12.308;2023-11-22T06:08:14;8.18;;;3.90;;
69170;SDS011;56279;47.902;12.308;2023-11-22T06:10:16;5.88;;;3.10;;
69170;SDS011;56279;47.902;12.308;2023-11-22T06:12:17;7.22;;;3.38;;
69170;SDS011;56279;47.902;12.308;2023-11-22T06:14:20;7.43;;;3.88;;
69170;SDS011;56279;47.902;12.308;2023-11-22T06:16:21;8.10;;;3.80;;
69170;SDS011;56279;47.902;12.308;2023-11-22T06:18:22;9.50;;;3.97;;
69170;SDS011;56279;47.902;12.308;2023-11-22T06:20:30;8.13;;;3.95;;
69170;SDS011;56279;47.902;12.308;2023-11-22T06:22:31;7.68;;;3.55;;
69170;SDS011;56279;47.902;12.308;2023-11-22T06:24:33;7.80;;;3.92;;
69170;SDS011;56279;47.902;12.308;2023-11-22T06:26:36;7.93;;;4.00;;
69170;SDS011;56279;47.902;12.308;2023-11-22T06:28:40;7.82;;;3.67;;
69170;SDS011;56279;47.902;12.308;2023-11-22T06:30:42;7.32;;;4.07;;
69170;SDS011;56279;47.902;12.308;2023-11-22T06:32:43;7.45;;;3.92;;
69170;SDS011;56279;47.902;12.308;2023-11-22T06:34:45;9.30;;;4.22;;
69170;SDS011;56279;47.902;12.308;2023-11-22T06:36:49;7.53;;;3.60;;
69170;SDS011;56279;47.902;12.308;2023-11-22T06:38:50;7.80;;;3.80;;
69170;SDS011;56279;47.902;12.308;2023-11-22T06:40:51;8.38;;;4.03;;
69170;SDS011;56279;47.902;12.308;2023-11-22T06:42:52;9.25;;;4.55;;
69170;SDS011;56279;47.902;12.308;2023-11-22T06:44:53;9.27;;;4.38;;
69170;SDS011;56279;47.902;12.308;2023-11-22T06:46:59;7.07;;;3.80;;
69170;SDS011;56279;47.902;12.308;2023-11-22T06:49:01;7.63;;;3.70;;
69170;SDS011;56279;47.902;12.308;2023-11-22T06:51:03;8.25;;;4.30;;
69170;SDS011;56279;47.902;12.308;2023-11-22T06:53:04;7.63;;;3.70;;
69170;SDS011;56279;47.902;12.308;2023-11-22T06:55:07;7.88;;;4.20;;
69170;SDS011;56279;47.902;12.308;2023-11-22T06:57:09;9.10;;;4.23;;
69170;SDS011;56279;47.902;12.308;2023-11-22T06:59:10;9.23;;;4.35;;
69170;SDS011;56279;47.902;12.308;2023-11-22T07:01:11;7.72;;;3.83;;
69170;SDS011;56279;47.902;12.308;2023-11-22T07:03:14;9.15;;;4.43;;
69170;SDS011;56279;47.902;12.308;2023-11-22T07:05:16;8.45;;;4.20;;
69170;SDS011;56279;47.902;12.308;2023-11-22T07:07:19;8.93;;;4.40;;
69170;SDS011;56279;47.902;12.308;2023-11-22T07:09:21;8.73;;;3.97;;
69170;SDS011;56279;47.902;12.308;2023-11-22T07:11:22;8.57;;;4.50;;
69170;SDS011;56279;47.902;12.308;2023-11-22T07:13:24;9.05;;;4.28;;
69170;SDS011;56279;47.902;12.308;2023-11-22T07:15:25;7.65;;;3.65;;
69170;SDS011;56279;47.902;12.308;2023-11-22T07:17:27;7.83;;;4.13;;
69170;SDS011;56279;47.902;12.308;2023-11-22T07:19:30;7.95;;;4.10;;
69170;SDS011;56279;47.902;12.308;2023-11-22T07:21:31;7.22;;;4.10;;
69170;SDS011;56279;47.902;12.308;2023-11-22T07:23:33;7.80;;;4.18;;
69170;SDS011;56279;47.902;12.308;2023-11-22T07:25:36;8.90;;;4.28;;
69170;SDS011;56279;47.902;12.308;2023-11-22T07:27:38;9.23;;;3.80;;
69170;SDS011;56279;47.902;12.308;2023-11-22T07:29:40;12.27;;;4.60;;
69170;SDS011;56279;47.902;12.308;2023-11-22T07:31:42;9.23;;;4.70;;
69170;SDS011;56279;47.902;12.308;2023-11-22T07:33:43;10.15;;;5.28;;
69170;SDS011;56279;47.902;12.308;2023-11-22T07:35:44;10.38;;;4.90;;
69170;SDS011;56279;47.902;12.308;2023-11-22T07:37:47;8.57;;;3.87;;
69170;SDS011;56279;47.902;12.308;2023-11-22T07:39:48;7.00;;;3.72;;
69170;SDS011;56279;47.902;12.308;2023-11-22T07:41:50;7.32;;;3.60;;
69170;SDS011;56279;47.902;12.308;2023-11-22T07:43:53;7.20;;;3.72;;
69170;SDS011;56279;47.902;12.308;2023-11-22T07:45:54;7.97;;;3.95;;
69170;SDS011;56279;47.902;12.308;2023-11-22T07:47:56;8.27;;;3.63;;
69170;SDS011;56279;47.902;12.308;2023-11-22T07:50:00;7.43;;;3.50;;
69170;SDS011;56279;47.902;12.308;2023-11-22T07:52:03;8.05;;;3.58;;
69170;SDS011;56279;47.902;12.308;2023-11-22T07:54:05;8.18;;;3.53;;
69170;SDS011;56279;47.902;12.308;2023-11-22T07:56:07;7.82;;;4.43;;
69170;SDS011;56279;47.902;12.308;2023-11-22T07:58:09;8.27;;;3.83;;
69170;SDS011;56279;47.902;12.308;2023-11-22T08:00:11;7.13;;;3.45;;
69170;SDS011;56279;47.902;12.308;2023-11-22T08:02:13;7.78;;;3.95;;
69170;SDS011;56279;47.902;12.308;2023-11-22T08:04:20;8.52;;;3.50;;
69170;SDS011;56279;47.902;12.308;2023-11-22T08:06:24;8.73;;;3.90;;
69170;SDS011;56279;47.902;12.308;2023-11-22T08:08:27;8.17;;;4.03;;
69170;SDS011;56279;47.902;12.308;2023-11-22T08:10:29;9.20;;;3.72;;
69170;SDS011;56279;47.902;12.308;2023-11-22T08:12:31;7.72;;;3.90;;
69170;SDS011;56279;47.902;12.308;2023-11-22T08:14:34;9.32;;;4.43;;
69170;SDS011;56279;47.902;12.308;2023-11-22T08:16:35;8.55;;;4.10;;
69170;SDS011;56279;47.902;12.308;2023-11-22T08:18:39;8.50;;;3.97;;
69170;SDS011;56279;47.902;12.308;2023-11-22T08:20:43;6.95;;;3.72;;
69170;SDS011;56279;47.902;12.308;2023-11-22T08:22:45;8.15;;;4.47;;
69170;SDS011;56279;47.902;12.308;2023-11-22T08:24:47;6.63;;;3.55;;
69170;SDS011;56279;47.902;12.308;2023-11-22T08:26:48;9.38;;;4.13;;
69170;SDS011;56279;47.902;12.308;2023-11-22T08:28:50;7.47;;;3.63;;
69170;SDS011;56279;47.902;12.308;2023-11-22T08:30:51;7.18;;;3.53;;
69170;SDS011;56279;47.902;12.308;2023-11-22T08:32:54;8.30;;;3.80;;
69170;SDS011;56279;47.902;12.308;2023-11-22T08:34:56;10.05;;;3.65;;
69170;SDS011;56279;47.902;12.308;2023-11-22T08:36:57;8.50;;;4.25;;
69170;SDS011;56279;47.902;12.308;2023-11-22T08:39:00;6.93;;;3.40;;
69170;SDS011;56279;47.902;12.308;2023-11-22T08:41:02;7.85;;;3.47;;
69170;SDS011;56279;47.902;12.308;2023-11-22T08:43:04;8.23;;;4.38;;
69170;SDS011;56279;47.902;12.308;2023-11-22T08:45:06;7.18;;;3.72;;
69170;SDS011;56279;47.902;12.308;2023-11-22T08:47:09;7.63;;;3.53;;
69170;SDS011;56279;47.902;12.308;2023-11-22T08:49:11;6.47;;;2.67;;
69170;SDS011;56279;47.902;12.308;2023-11-22T08:51:12;6.50;;;3.03;;
69170;SDS011;56279;47.902;12.308;2023-11-22T08:53:13;8.45;;;3.13;;
69170;SDS011;56279;47.902;12.308;2023-11-22T08:55:16;7.00;;;3.28;;
69170;SDS011;56279;47.902;12.308;2023-11-22T08:57:18;7.35;;;3.28;;
69170;SDS011;56279;47.902;12.308;2023-11-22T08:59:19;8.63;;;3.00;;
69170;SDS011;56279;47.902;12.308;2023-11-22T09:01:22;6.80;;;3.05;;
69170;SDS011;56279;47.902;12.308;2023-11-22T09:03:24;7.53;;;3.67;;
69170;SDS011;56279;47.902;12.308;2023-11-22T09:05:25;9.20;;;3.92;;
69170;SDS011;56279;47.902;12.308;2023-11-22T09:07:27;9.15;;;4.05;;
69170;SDS011;56279;47.902;12.308;2023-11-22T09:09:29;8.97;;;3.90;;
69170;SDS011;56279;47.902;12.308;2023-11-22T09:11:31;10.40;;;4.75;;
69170;SDS011;56279;47.902;12.308;2023-11-22T09:13:35;8.13;;;3.58;;
69170;SDS011;56279;47.902;12.308;2023-11-22T09:15:42;6.65;;;3.15;;
69170;SDS011;56279;47.902;12.308;2023-11-22T09:17:56;6.22;;;2.97;;
69170;SDS011;56279;47.902;12.308;2023-11-22T09:19:58;8.80;;;2.73;;
69170;SDS011;56279;47.902;12.308;2023-11-22T09:22:00;4.75;;;2.47;;
69170;SDS011;56279;47.902;12.308;2023-11-22T09:24:02;4.50;;;2.30;;
69170;SDS011;56279;47.902;12.308;2023-11-22T09:26:06;5.13;;;2.53;;
69170;SDS011;56279;47.902;12.308;2023-11-22T09:28:08;5.63;;;2.80;;
69170;SDS011;56279;47.902;12.308;2023-11-22T09:30:10;7.13;;;2.70;;
69170;SDS011;56279;47.902;12.308;2023-11-22T09:32:18;5.45;;;2.67;;
69170;SDS011;56279;47.902;12.308;2023-11-22T09:34:20;5.85;;;3.15;;
69170;SDS011;56279;47.902;12.308;2023-11-22T09:36:21;4.53;;;2.40;;
69170;SDS011;56279;47.902;12.308;2023-11-22T09:38:22;8.18;;;3.20;;
69170;SDS011;56279;47.902;12.308;2023-11-22T09:40:24;5.93;;;2.90;;
69170;SDS011;56279;47.902;12.308;2023-11-22T09:42:28;5.75;;;2.85;;
69170;SDS011;56279;47.902;12.308;2023-11-22T09:44:31;5.57;;;2.60;;
69170;SDS011;56279;47.902;12.308;2023-11-22T09:46:32;4.72;;;2.50;;
69170;SDS011;56279;47.902;12.308;2023-11-22T09:48:36;8.32;;;3.17;;
69170;SDS011;56279;47.902;12.308;2023-11-22T09:50:42;4.73;;;2.30;;
69170;SDS011;56279;47.902;12.308;2023-11-22T09:52:51;7.57;;;2.67;;
69170;SDS011;56279;47.902;12.308;2023-11-22T09:54:57;4.78;;;2.35;;
69170;SDS011;56279;47.902;12.308;2023-11-22T09:56:59;3.70;;;2.20;;
69170;SDS011;56279;47.902;12.308;2023-11-22T09:59:03;5.32;;;2.63;;
69170;SDS011;56279;47.902;12.308;2023-11-22T10:01:10;5.17;;;2.30;;
69170;SDS011;56279;47.902;12.308;2023-11-22T10:03:12;5.85;;;2.70;;
69170;SDS011;56279;47.902;12.308;2023-11-22T10:05:15;5.25;;;2.83;;
69170;SDS011;56279;47.902;12.308;2023-11-22T10:07:16;5.82;;;2.65;;
69170;SDS011;56279;47.902;12.308;2023-11-22T10:09:18;8.23;;;4.47;;
69170;SDS011;56279;47.902;12.308;2023-11-22T10:11:20;7.60;;;3.27;;
69170;SDS011;56279;47.902;12.308;2023-11-22T10:13:22;5.45;;;2.58;;
69170;SDS011;56279;47.902;12.308;2023-11-22T10:15:23;6.55;;;3.00;;
69170;SDS011;56279;47.902;12.308;2023-11-22T10:17:28;7.90;;;3.20;;
69170;SDS011;56279;47.902;12.308;2023-11-22T10:19:30;5.40;;;2.55;;
69170;SDS011;56279;47.902;12.308;2023-11-22T10:21:32;4.93;;;2.50;;
69170;SDS011;56279;47.902;12.308;2023-11-22T10:23:33;6.70;;;3.10;;
69170;SDS011;56279;47.902;12.308;2023-11-22T10:25:55;5.20;;;2.67;;
69170;SDS011;56279;47.902;12.308;2023-11-22T10:27:56;4.70;;;2.65;;
69170;SDS011;56279;47.902;12.308;2023-11-22T10:29:59;6.18;;;3.00;;
69170;SDS011;56279;47.902;12.308;2023-11-22T10:32:03;5.93;;;2.70;;
69170;SDS011;56279;47.902;12.308;2023-11-22T10:34:04;5.03;;;2.70;;
69170;SDS011;56279;47.902;12.308;2023-11-22T10:36:06;4.43;;;2.53;;
69170;SDS011;56279;47.902;12.308;2023-11-22T10:38:08;5.03;;;2.70;;
69170;SDS011;56279;47.902;12.308;2023-11-22T10:40:11;4.45;;;2.50;;
69170;SDS011;56279;47.902;12.308;2023-11-22T10:42:14;5.13;;;2.47;;
69170;SDS011;56279;47.902;12.308;2023-11-22T10:44:15;4.63;;;2.20;;
69170;SDS011;56279;47.902;12.308;2023-11-22T10:46:17;4.40;;;2.38;;
69170;SDS011;56279;47.902;12.308;2023-11-22T10:48:18;5.82;;;2.65;;
69170;SDS011;56279;47.902;12.308;2023-11-22T10:50:22;4.65;;;2.63;;
69170;SDS011;56279;47.902;12.308;2023-11-22T10:52:24;3.90;;;1.97;;
69170;SDS011;56279;47.902;12.308;2023-11-22T10:54:28;5.03;;;2.20;;
69170;SDS011;56279;47.902;12.308;2023-11-22T10:56:35;4.13;;;2.05;;
69170;SDS011;56279;47.902;12.308;2023-11-22T11:00:52;4.35;;;2.30;;
69170;SDS011;56279;47.902;12.308;2023-11-22T11:02:58;4.43;;;2.13;;
69170;SDS011;56279;47.902;12.308;2023-11-22T11:05:07;4.85;;;2.45;;
69170;SDS011;56279;47.902;12.308;2023-11-22T11:07:24;4.75;;;2.58;;
69170;SDS011;56279;47.902;12.308;2023-11-22T11:09:31;3.58;;;1.90;;
69170;SDS011;56279;47.902;12.308;2023-11-22T11:11:34;3.40;;;1.90;;
69170;SDS011;56279;47.902;12.308;2023-11-22T11:13:37;4.77;;;2.40;;
69170;SDS011;56279;47.902;12.308;2023-11-22T11:15:41;7.10;;;3.25;;
69170;SDS011;56279;47.902;12.308;2023-11-22T11:17:44;7.10;;;3.05;;
69170;SDS011;56279;47.902;12.308;2023-11-22T11:19:48;4.20;;;2.38;;
69170;SDS011;56279;47.902;12.308;2023-11-22T11:21:50;6.15;;;3.28;;
69170;SDS011;56279;47.902;12.308;2023-11-22T11:23:51;7.17;;;3.90;;
69170;SDS011;56279;47.902;12.308;2023-11-22T11:25:56;5.50;;;2.90;;
69170;SDS011;56279;47.902;12.308;2023-11-22T11:27:58;7.35;;;3.58;;
69170;SDS011;56279;47.902;12.308;2023-11-22T11:30:00;28.75;;;8.82;;
69170;SDS011;56279;47.902;12.308;2023-11-22T11:32:04;12.05;;;5.05;;
69170;SDS011;56279;47.902;12.308;2023-11-22T11:34:07;5.77;;;2.97;;
69170;SDS011;56279;47.902;12.308;2023-11-22T11:36:08;7.13;;;2.42;;
69170;SDS011;56279;47.902;12.308;2023-11-22T11:38:10;4.13;;;2.30;;
69170;SDS011;56279;47.902;12.308;2023-11-22T11:40:26;4.45;;;2.67;;
69170;SDS011;56279;47.902;12.308;2023-11-22T11:42:32;6.53;;;3.40;;
69170;SDS011;56279;47.902;12.308;2023-11-22T11:44:33;9.70;;;4.10;;
69170;SDS011;56279;47.902;12.308;2023-11-22T11:46:36;4.90;;;2.45;;
69170;SDS011;56279;47.902;12.308;2023-11-22T11:48:41;5.60;;;2.70;;
69170;SDS011;56279;47.902;12.308;2023-11-22T11:50:45;4.78;;;2.58;;
69170;SDS011;56279;47.902;12.308;2023-11-22T11:52:47;4.10;;;2.20;;
69170;SDS011;56279;47.902;12.308;2023-11-22T11:54:50;3.53;;;1.90;;
69170;SDS011;56279;47.902;12.308;2023-11-22T11:56:51;4.25;;;2.10;;
69170;SDS011;56279;47.902;12.308;2023-11-22T11:58:56;5.65;;;3.45;;
69170;SDS011;56279;47.902;12.308;2023-11-22T12:01:00;7.43;;;4.47;;
69170;SDS011;56279;47.902;12.308;2023-11-22T12:03:03;9.40;;;5.25;;
69170;SDS011;56279;47.902;12.308;2023-11-22T12:05:05;5.40;;;3.00;;